createdAt,value
2023-02-06T00:02:08.206Z,1.70
2023-02-06T00:04:35.068Z,2.80
2023-02-06T00:07:01.669Z,3.40
2023-02-06T00:09:28.282Z,1.90
2023-02-06T00:11:54.975Z,2.00
2023-02-06T00:14:21.821Z,1.60
2023-02-06T00:16:48.665Z,1.50
2023-02-06T00:19:15.510Z,1.80
2023-02-06T00:21:43.161Z,1.80
2023-02-06T00:24:09.792Z,1.90
2023-02-06T00:26:36.650Z,2.40
2023-02-06T00:29:03.491Z,2.00
2023-02-06T00:31:30.363Z,1.00
2023-02-06T00:33:57.177Z,3.00
2023-02-06T00:36:25.451Z,2.00
2023-02-06T00:38:52.133Z,3.60
2023-02-06T00:41:19.952Z,2.80
2023-02-06T00:43:46.801Z,2.60
2023-02-06T00:46:13.714Z,2.50
2023-02-06T00:48:42.321Z,3.60
2023-02-06T00:51:08.993Z,3.00
2023-02-06T00:53:37.036Z,1.90
2023-02-06T00:56:04.282Z,2.20
2023-02-06T00:58:30.887Z,2.10
2023-02-06T01:00:57.661Z,2.40
2023-02-06T01:03:24.414Z,1.50
2023-02-06T01:05:51.036Z,1.60
2023-02-06T01:08:17.886Z,1.70
2023-02-06T01:10:45.339Z,1.90
2023-02-06T01:13:12.380Z,1.80
2023-02-06T01:15:41.284Z,1.00
2023-02-06T01:18:08.323Z,1.40
2023-02-06T01:20:35.168Z,1.80
2023-02-06T01:23:04.049Z,1.30
2023-02-06T01:25:31.515Z,1.10
2023-02-06T01:27:58.611Z,3.00
2023-02-06T01:30:25.358Z,2.70
2023-02-06T01:32:52.244Z,3.00
2023-02-06T01:35:19.088Z,3.80
2023-02-06T01:37:45.935Z,4.20
2023-02-06T01:40:14.701Z,4.90
2023-02-06T01:42:41.458Z,5.50
2023-02-06T01:45:27.367Z,7.40
2023-02-06T01:48:03.401Z,6.00
2023-02-06T01:50:32.286Z,11.90
2023-02-06T01:52:59.346Z,9.20
2023-02-06T01:55:26.591Z,6.30
2023-02-06T01:57:53.435Z,8.90
2023-02-06T02:00:20.569Z,7.50
2023-02-06T02:02:49.364Z,8.60
2023-02-06T02:05:17.235Z,7.70
2023-02-06T02:08:01.374Z,6.50
2023-02-06T02:10:32.014Z,6.50
2023-02-06T02:12:58.886Z,6.00
2023-02-06T02:15:35.629Z,4.30
2023-02-06T02:18:06.676Z,2.10
2023-02-06T02:20:55.028Z,4.60
2023-02-06T02:23:30.873Z,4.70
2023-02-06T02:26:02.230Z,3.90
2023-02-06T02:28:47.703Z,4.10
2023-02-06T02:31:38.988Z,4.40
2023-02-06T02:34:11.613Z,4.10
2023-02-06T02:36:44.491Z,2.60
2023-02-06T02:39:29.562Z,2.60
2023-02-06T02:42:04.180Z,2.30
2023-02-06T02:44:34.708Z,2.30
2023-02-06T02:47:04.665Z,2.40
2023-02-06T02:49:32.948Z,2.20
2023-02-06T02:52:00.145Z,2.00
2023-02-06T02:54:28.783Z,2.30
2023-02-06T02:57:05.495Z,1.60
2023-02-06T02:59:41.356Z,3.70
2023-02-06T03:02:11.553Z,1.90
2023-02-06T03:04:42.629Z,2.10
2023-02-06T03:07:13.559Z,1.70
2023-02-06T03:09:40.809Z,2.90
2023-02-06T03:12:13.175Z,3.80
2023-02-06T03:14:50.467Z,2.00
2023-02-06T03:17:22.482Z,2.00
2023-02-06T03:19:52.755Z,4.40
2023-02-06T03:22:21.663Z,2.80
2023-02-06T03:24:49.734Z,1.70
2023-02-06T03:27:17.164Z,2.90
2023-02-06T03:29:45.111Z,2.00
2023-02-06T03:32:24.372Z,1.90
2023-02-06T03:34:55.716Z,1.50
2023-02-06T03:37:23.584Z,2.40
2023-02-06T03:39:50.431Z,1.60
2023-02-06T03:42:17.685Z,1.70
2023-02-06T03:44:47.795Z,1.90
2023-02-06T03:47:16.482Z,1.30
2023-02-06T03:49:43.659Z,2.70
2023-02-06T03:52:12.428Z,2.50
2023-02-06T03:54:41.975Z,1.90
2023-02-06T03:57:10.814Z,2.60
2023-02-06T03:59:37.668Z,2.20
2023-02-06T04:02:05.183Z,1.80
2023-02-06T04:04:35.449Z,2.70
2023-02-06T04:07:05.976Z,2.40
2023-02-06T04:09:32.819Z,2.70
2023-02-06T04:11:59.416Z,2.60
2023-02-06T04:14:26.091Z,3.30
2023-02-06T04:16:52.931Z,2.20
2023-02-06T04:19:19.778Z,3.30
2023-02-06T04:21:46.621Z,2.90
2023-02-06T04:24:13.254Z,4.00
2023-02-06T04:26:39.889Z,5.00
2023-02-06T04:29:06.740Z,4.40
2023-02-06T04:31:33.583Z,5.20
2023-02-06T04:34:00.196Z,4.80
2023-02-06T04:36:27.059Z,4.60
2023-02-06T04:38:53.943Z,2.70
2023-02-06T04:41:20.736Z,4.10
2023-02-06T04:43:47.586Z,3.40
2023-02-06T04:46:14.455Z,4.80
2023-02-06T04:48:41.142Z,5.10
2023-02-06T04:51:07.911Z,4.50
2023-02-06T04:53:34.748Z,3.90
2023-02-06T04:56:05.491Z,2.00
2023-02-06T04:58:32.943Z,2.20
2023-02-06T05:00:59.986Z,4.70
2023-02-06T05:03:29.618Z,2.80
2023-02-06T05:05:56.946Z,5.10
2023-02-06T05:08:32.619Z,5.60
2023-02-06T05:10:59.844Z,3.20
2023-02-06T05:13:26.895Z,3.60
2023-02-06T05:15:53.798Z,3.40
2023-02-06T05:18:20.780Z,2.40
2023-02-06T05:20:47.618Z,3.20
2023-02-06T05:23:14.671Z,2.60
2023-02-06T05:25:42.316Z,5.10
2023-02-06T05:28:10.667Z,6.30
2023-02-06T05:30:37.884Z,6.60
2023-02-06T05:33:04.705Z,5.50
2023-02-06T05:35:31.379Z,5.70
2023-02-06T05:37:58.606Z,5.70
2023-02-06T05:40:25.280Z,4.60
2023-02-06T05:42:52.076Z,5.00
2023-02-06T05:45:18.709Z,5.20
2023-02-06T05:47:45.560Z,6.10
2023-02-06T05:50:12.385Z,6.40
2023-02-06T05:52:39.024Z,7.60
2023-02-06T05:55:06.078Z,3.60
2023-02-06T05:57:33.328Z,5.30
2023-02-06T06:00:00.180Z,2.60
2023-02-06T06:02:27.012Z,3.00
2023-02-06T06:04:53.672Z,4.20
2023-02-06T06:07:20.499Z,3.70
2023-02-06T06:09:47.341Z,4.80
2023-02-06T06:12:14.183Z,5.90
2023-02-06T06:14:41.225Z,3.40
2023-02-06T06:17:08.083Z,4.70
2023-02-06T06:19:34.703Z,4.20
2023-02-06T06:22:01.553Z,4.60
2023-02-06T06:24:28.411Z,4.10
2023-02-06T06:26:55.099Z,4.60
2023-02-06T06:29:21.875Z,3.80
2023-02-06T06:31:48.740Z,5.80
2023-02-06T06:34:15.561Z,8.30
2023-02-06T06:36:42.189Z,7.60
2023-02-06T06:39:09.047Z,8.90
2023-02-06T06:41:35.718Z,8.80
2023-02-06T06:44:02.528Z,6.80
2023-02-06T06:46:29.559Z,3.40
2023-02-06T06:48:56.172Z,7.00
2023-02-06T06:51:23.447Z,10.80
2023-02-06T06:53:50.468Z,11.30
2023-02-06T06:56:17.342Z,11.00
2023-02-06T06:58:44.183Z,8.80
2023-02-06T07:01:11.009Z,8.80
2023-02-06T07:03:37.872Z,22.50
2023-02-06T07:06:05.539Z,23.80
2023-02-06T07:08:32.248Z,6.80
2023-02-06T07:10:59.004Z,6.00
2023-02-06T07:13:25.855Z,5.70
2023-02-06T07:15:52.484Z,6.60
2023-02-06T07:18:19.326Z,7.60
2023-02-06T07:20:46.171Z,18.70
2023-02-06T07:23:13.018Z,14.60
2023-02-06T07:25:39.863Z,15.30
2023-02-06T07:28:06.521Z,8.80
2023-02-06T07:30:33.233Z,10.60
2023-02-06T07:32:59.978Z,5.40
2023-02-06T07:35:27.033Z,4.80
2023-02-06T07:37:54.269Z,4.50
2023-02-06T07:40:22.849Z,5.60
2023-02-06T07:42:49.533Z,7.70
2023-02-06T07:45:21.554Z,5.10
2023-02-06T07:47:48.187Z,3.30
2023-02-06T07:50:15.045Z,5.10
2023-02-06T07:52:41.725Z,6.00
2023-02-06T07:55:10.383Z,6.20
2023-02-06T07:57:37.057Z,1.70
2023-02-06T08:00:04.682Z,4.20
2023-02-06T08:02:38.822Z,4.90
2023-02-06T08:05:05.919Z,2.60
2023-02-06T08:07:32.763Z,4.60
2023-02-06T08:10:02.381Z,4.20
2023-02-06T08:12:45.543Z,4.00
2023-02-06T08:15:12.229Z,5.40
2023-02-06T08:17:38.921Z,7.20
2023-02-06T08:20:05.817Z,4.80
2023-02-06T08:22:33.067Z,3.30
2023-02-06T08:24:59.915Z,4.70
2023-02-06T08:27:27.509Z,2.70
2023-02-06T08:29:54.215Z,3.80
2023-02-06T08:32:21.065Z,3.70
2023-02-06T08:34:47.762Z,5.70
2023-02-06T08:37:14.631Z,4.30
2023-02-06T08:39:41.486Z,4.10
2023-02-06T08:42:11.347Z,4.40
2023-02-06T08:44:38.004Z,6.40
2023-02-06T08:47:10.196Z,5.10
2023-02-06T08:49:37.559Z,4.40
2023-02-06T08:52:04.610Z,4.20
2023-02-06T08:54:33.194Z,4.20
2023-02-06T08:57:02.995Z,4.30
2023-02-06T08:59:31.186Z,3.80
2023-02-06T09:01:57.904Z,3.70
2023-02-06T09:04:24.529Z,3.10
2023-02-06T09:06:52.381Z,3.30
2023-02-06T09:09:19.870Z,3.90
2023-02-06T09:11:46.496Z,2.80
2023-02-06T09:14:14.681Z,2.10
2023-02-06T09:16:41.356Z,3.30
2023-02-06T09:19:08.310Z,3.20
2023-02-06T09:21:35.797Z,4.30
2023-02-06T09:24:06.561Z,3.00
2023-02-06T09:26:58.013Z,3.10
2023-02-06T09:29:27.343Z,2.50
2023-02-06T09:31:54.018Z,2.80
2023-02-06T09:34:20.669Z,2.20
2023-02-06T09:36:47.291Z,5.00
2023-02-06T09:39:14.135Z,2.90
2023-02-06T09:41:43.845Z,3.40
2023-02-06T09:44:10.516Z,2.50
2023-02-06T09:46:39.887Z,3.10
2023-02-06T09:49:10.930Z,2.80
2023-02-06T09:51:40.179Z,4.90
2023-02-06T09:54:19.953Z,3.30
2023-02-06T09:56:46.796Z,3.50
2023-02-06T09:59:17.683Z,3.30
2023-02-06T10:01:47.953Z,3.50
2023-02-06T10:04:14.676Z,3.00
2023-02-06T10:06:41.323Z,3.60
2023-02-06T10:09:14.489Z,3.20
2023-02-06T10:11:48.091Z,2.90
2023-02-06T10:14:23.754Z,3.50
2023-02-06T10:16:53.485Z,2.30
2023-02-06T10:19:29.406Z,2.50
2023-02-06T10:22:00.166Z,4.00
2023-02-06T10:24:32.349Z,7.10
2023-02-06T10:27:01.409Z,5.20
2023-02-06T10:29:29.930Z,3.40
2023-02-06T10:32:08.825Z,3.20
2023-02-06T10:34:42.837Z,3.20
2023-02-06T10:37:24.721Z,4.70
2023-02-06T10:39:54.145Z,3.50
2023-02-06T10:42:29.094Z,3.30
2023-02-06T10:45:18.645Z,4.40
2023-02-06T10:47:58.592Z,3.50
2023-02-06T10:50:57.726Z,3.10
2023-02-06T10:53:28.082Z,3.30
2023-02-06T10:55:59.959Z,3.00
2023-02-06T10:58:37.832Z,2.50
2023-02-06T11:01:20.074Z,3.20
2023-02-06T11:03:58.608Z,3.00
2023-02-06T11:06:26.474Z,2.80
2023-02-06T11:08:53.187Z,3.60
2023-02-06T11:11:25.529Z,3.00
2023-02-06T11:14:04.991Z,3.60
2023-02-06T11:16:33.219Z,2.50
2023-02-06T11:19:01.646Z,3.10
2023-02-06T11:21:48.741Z,2.90
2023-02-06T11:24:16.560Z,3.10
2023-02-06T11:26:45.440Z,3.20
2023-02-06T11:29:20.494Z,2.80
2023-02-06T11:31:52.383Z,2.90
2023-02-06T11:34:28.023Z,2.90
2023-02-06T11:36:56.342Z,2.60
2023-02-06T11:39:26.416Z,3.20
2023-02-06T11:41:57.358Z,2.80
2023-02-06T11:44:27.873Z,2.60
2023-02-06T11:46:54.613Z,3.80
2023-02-06T11:49:25.842Z,3.60
2023-02-06T11:51:54.289Z,2.70
2023-02-06T11:54:21.180Z,2.50
2023-02-06T11:57:00.016Z,7.30
2023-02-06T11:59:27.743Z,5.20
2023-02-06T12:01:55.002Z,4.40
2023-02-06T12:04:26.314Z,3.90
2023-02-06T12:06:55.113Z,2.90
2023-02-06T12:09:22.018Z,3.10
2023-02-06T12:12:05.534Z,2.90
2023-02-06T12:14:36.093Z,2.70
2023-02-06T12:17:04.560Z,2.60
2023-02-06T12:19:43.106Z,2.10
2023-02-06T12:22:15.906Z,2.00
2023-02-06T12:24:45.220Z,1.90
2023-02-06T12:27:24.852Z,3.10
2023-02-06T12:29:57.790Z,2.90
2023-02-06T12:32:28.824Z,1.90
2023-02-06T12:35:01.391Z,3.10
2023-02-06T12:37:37.861Z,2.60
2023-02-06T12:40:04.708Z,2.50
2023-02-06T12:42:32.076Z,4.20
2023-02-06T12:45:07.743Z,4.00
2023-02-06T12:47:50.656Z,2.50
2023-02-06T12:50:22.410Z,2.20
2023-02-06T12:52:51.690Z,2.50
2023-02-06T12:55:18.309Z,2.30
2023-02-06T12:57:45.401Z,3.30
2023-02-06T13:00:32.217Z,2.40
2023-02-06T13:03:17.641Z,2.40
2023-02-06T13:05:47.005Z,2.80
2023-02-06T13:08:17.563Z,2.20
2023-02-06T13:10:44.407Z,2.80
2023-02-06T13:13:31.957Z,2.50
2023-02-06T13:16:00.703Z,2.90
2023-02-06T13:18:39.593Z,1.70
2023-02-06T13:21:28.963Z,2.60
2023-02-06T13:24:01.471Z,3.60
2023-02-06T13:26:43.313Z,2.30
2023-02-06T13:29:22.150Z,2.60
2023-02-06T13:31:48.873Z,2.60
2023-02-06T13:34:16.904Z,2.30
2023-02-06T13:36:47.744Z,2.70
2023-02-06T13:39:22.305Z,2.60
2023-02-06T13:41:49.018Z,2.40
2023-02-06T13:44:25.411Z,3.20
2023-02-06T13:46:52.252Z,3.20
2023-02-06T13:49:22.170Z,2.20
2023-02-06T13:51:50.673Z,3.00
2023-02-06T13:54:20.596Z,3.60
2023-02-06T13:56:47.406Z,3.30
2023-02-06T13:59:16.705Z,4.00
2023-02-06T14:01:44.198Z,3.30
2023-02-06T14:04:15.709Z,3.10
2023-02-06T14:06:57.100Z,3.00
2023-02-06T14:09:43.924Z,2.30
2023-02-06T14:12:29.759Z,2.10
2023-02-06T14:15:08.573Z,2.40
2023-02-06T14:17:56.152Z,2.70
2023-02-06T14:21:10.520Z,2.80
2023-02-06T14:23:56.499Z,2.80
2023-02-06T14:26:23.186Z,3.00
2023-02-06T14:29:14.675Z,2.00
2023-02-06T14:31:41.552Z,1.90
2023-02-06T14:34:23.817Z,2.70
2023-02-06T14:36:50.741Z,2.90
2023-02-06T14:39:36.623Z,2.60
2023-02-06T14:42:18.433Z,2.70
2023-02-06T14:44:47.035Z,3.00
2023-02-06T14:47:17.829Z,2.40
2023-02-06T14:49:46.753Z,3.10
2023-02-06T14:52:17.156Z,3.80
2023-02-06T14:54:43.901Z,3.30
2023-02-06T14:57:23.733Z,2.90
2023-02-06T14:59:55.421Z,2.90
2023-02-06T15:02:33.528Z,2.50
2023-02-06T15:05:02.188Z,2.80
2023-02-06T15:07:32.934Z,2.70
2023-02-06T15:10:01.821Z,3.30
2023-02-06T15:12:29.309Z,3.50
2023-02-06T15:15:02.884Z,2.10
2023-02-06T15:17:30.749Z,3.30
2023-02-06T15:19:58.205Z,2.60
2023-02-06T15:22:29.554Z,3.00
2023-02-06T15:25:18.171Z,2.70
2023-02-06T15:27:45.585Z,2.90
2023-02-06T15:30:24.096Z,3.30
2023-02-06T15:32:52.395Z,3.10
2023-02-06T15:35:24.938Z,2.30
2023-02-06T15:37:53.206Z,3.10
2023-02-06T15:40:26.895Z,3.00
2023-02-06T15:42:54.066Z,2.70
2023-02-06T15:45:26.261Z,3.30
2023-02-06T15:47:54.504Z,2.50
2023-02-06T15:50:26.086Z,2.60
2023-02-06T15:52:52.918Z,3.40
2023-02-06T15:55:24.660Z,2.60
2023-02-06T15:57:52.319Z,2.70
2023-02-06T16:00:23.899Z,2.80
2023-02-06T16:02:51.541Z,3.10
2023-02-06T16:05:26.974Z,3.10
2023-02-06T16:07:54.859Z,3.90
2023-02-06T16:10:24.143Z,3.10
2023-02-06T16:12:51.807Z,3.00
2023-02-06T16:15:26.018Z,3.60
2023-02-06T16:17:52.885Z,2.70
2023-02-06T16:20:32.608Z,2.80
2023-02-06T16:23:18.286Z,4.20
2023-02-06T16:25:46.370Z,3.40
2023-02-06T16:28:23.340Z,2.90
2023-02-06T16:30:58.365Z,3.00
2023-02-06T16:33:38.429Z,4.10
2023-02-06T16:36:05.686Z,3.80
2023-02-06T16:38:32.527Z,3.80
2023-02-06T16:40:59.769Z,4.10
2023-02-06T16:43:27.896Z,3.00
2023-02-06T16:45:54.940Z,4.00
2023-02-06T16:48:22.145Z,3.30
2023-02-06T16:50:49.401Z,3.60
2023-02-06T16:53:20.306Z,2.90
2023-02-06T16:55:47.378Z,3.10
2023-02-06T16:58:24.257Z,3.70
2023-02-06T17:00:52.123Z,2.60
2023-02-06T17:03:19.580Z,4.30
2023-02-06T17:05:47.656Z,3.40
2023-02-06T17:08:19.408Z,4.10
2023-02-06T17:10:47.204Z,2.40
2023-02-06T17:13:14.725Z,2.60
2023-02-06T17:15:42.411Z,3.00
2023-02-06T17:18:12.511Z,2.50
2023-02-06T17:20:41.054Z,3.20
2023-02-06T17:23:08.660Z,2.90
2023-02-06T17:25:35.676Z,2.50
2023-02-06T17:28:03.604Z,3.90
2023-02-06T17:30:31.280Z,3.80
2023-02-06T17:32:58.672Z,3.20
2023-02-06T17:35:26.757Z,3.80
2023-02-06T17:37:54.019Z,3.70
2023-02-06T17:40:23.849Z,3.80
2023-02-06T17:42:50.949Z,3.20
2023-02-06T17:45:17.823Z,3.90
2023-02-06T17:47:45.890Z,5.00
2023-02-06T17:50:15.466Z,4.30
2023-02-06T17:52:43.566Z,4.90
2023-02-06T17:55:11.342Z,4.30
2023-02-06T17:57:39.607Z,3.50
2023-02-06T18:00:09.064Z,4.00
2023-02-06T18:02:36.193Z,3.90
2023-02-06T18:05:06.451Z,4.00
2023-02-06T18:07:33.537Z,4.40
2023-02-06T18:10:01.195Z,4.00
2023-02-06T18:12:28.652Z,4.20
2023-02-06T18:14:55.698Z,4.20
2023-02-06T18:17:22.548Z,9.60
2023-02-06T18:19:51.639Z,10.00
2023-02-06T18:22:21.153Z,8.60
2023-02-06T18:24:48.837Z,9.80
2023-02-06T18:27:15.855Z,8.30
2023-02-06T18:29:49.823Z,9.80
2023-02-06T18:32:22.456Z,9.60
2023-02-06T18:34:51.536Z,10.00
2023-02-06T18:37:20.411Z,9.90
2023-02-06T18:39:47.543Z,9.10
2023-02-06T18:42:34.375Z,10.90
2023-02-06T18:45:04.001Z,8.00
2023-02-06T18:47:32.158Z,8.50
2023-02-06T18:49:59.693Z,11.10
2023-02-06T18:52:29.142Z,13.20
2023-02-06T18:54:57.738Z,10.20
2023-02-06T18:57:25.461Z,11.20
2023-02-06T18:59:56.450Z,13.10
2023-02-06T19:02:26.625Z,18.70
2023-02-06T19:04:56.025Z,10.30
2023-02-06T19:07:26.059Z,12.20
2023-02-06T19:10:01.187Z,13.10
2023-02-06T19:12:32.035Z,8.60
2023-02-06T19:15:01.424Z,10.70
2023-02-06T19:17:30.914Z,7.70
2023-02-06T19:19:58.455Z,7.20
2023-02-06T19:22:26.870Z,7.80
2023-02-06T19:24:55.149Z,7.20
2023-02-06T19:27:25.633Z,6.80
2023-02-06T19:29:54.162Z,7.00
2023-02-06T19:32:21.816Z,8.00
2023-02-06T19:34:50.087Z,7.30
2023-02-06T19:37:18.447Z,7.70
2023-02-06T19:39:46.978Z,7.40
2023-02-06T19:42:17.402Z,7.70
2023-02-06T19:44:46.054Z,6.10
2023-02-06T19:47:18.573Z,8.10
2023-02-06T19:49:46.914Z,8.60
2023-02-06T19:52:15.803Z,8.00
2023-02-06T19:54:43.679Z,8.50
2023-02-06T19:57:12.366Z,8.90
2023-02-06T19:59:41.258Z,7.80
2023-02-06T20:02:11.349Z,7.30
2023-02-06T20:04:40.764Z,7.80
2023-02-06T20:07:09.145Z,8.20
2023-02-06T20:09:41.844Z,8.20
2023-02-06T20:12:11.741Z,10.40
2023-02-06T20:14:41.347Z,7.70
2023-02-06T20:17:09.641Z,9.30
2023-02-06T20:19:37.688Z,7.30
2023-02-06T20:22:05.568Z,7.20
2023-02-06T20:24:34.060Z,8.10
2023-02-06T20:27:04.006Z,8.10
2023-02-06T20:29:35.833Z,8.00
2023-02-06T20:32:04.614Z,9.00
2023-02-06T20:34:32.879Z,7.20
2023-02-06T20:37:02.686Z,6.70
2023-02-06T20:39:32.782Z,6.80
2023-02-06T20:42:02.295Z,6.50
2023-02-06T20:44:31.096Z,7.70
2023-02-06T20:46:58.759Z,7.00
2023-02-06T20:49:28.647Z,9.50
2023-02-06T20:51:57.988Z,9.30
2023-02-06T20:54:27.481Z,9.50
2023-02-06T20:56:54.940Z,12.50
2023-02-06T20:59:22.801Z,7.40
2023-02-06T21:01:50.057Z,7.40
2023-02-06T21:04:18.544Z,8.00
2023-02-06T21:06:48.074Z,7.00
2023-02-06T21:09:17.627Z,8.00
2023-02-06T21:11:46.734Z,7.40
2023-02-06T21:14:15.327Z,7.60
2023-02-06T21:16:44.647Z,8.10
2023-02-06T21:19:12.901Z,8.60
2023-02-06T21:21:39.951Z,8.50
2023-02-06T21:24:07.618Z,8.70
2023-02-06T21:26:35.685Z,11.80
2023-02-06T21:29:03.345Z,12.90
2023-02-06T21:31:37.264Z,10.20
2023-02-06T21:34:09.322Z,8.70
2023-02-06T21:36:37.190Z,11.80
2023-02-06T21:39:04.145Z,10.30
2023-02-06T21:41:30.802Z,9.90
2023-02-06T21:43:57.496Z,11.40
2023-02-06T21:46:24.220Z,11.00
2023-02-06T21:48:53.049Z,9.90
2023-02-06T21:51:20.504Z,12.40
2023-02-06T21:53:47.155Z,11.50
2023-02-06T21:56:15.413Z,11.30
2023-02-06T21:58:42.260Z,9.00
2023-02-06T22:01:14.044Z,11.90
2023-02-06T22:03:40.865Z,9.70
2023-02-06T22:06:09.563Z,9.20
2023-02-06T22:08:36.587Z,18.30
2023-02-06T22:11:10.397Z,19.80
2023-02-06T22:13:37.236Z,25.80
2023-02-06T22:16:04.441Z,25.10
2023-02-06T22:18:31.347Z,22.50
2023-02-06T22:21:05.745Z,20.60
2023-02-06T22:23:32.644Z,19.80
2023-02-06T22:25:59.639Z,18.70
2023-02-06T22:28:26.687Z,16.50
2023-02-06T22:30:53.594Z,14.30
2023-02-06T22:33:20.370Z,10.80
2023-02-06T22:35:47.012Z,15.20
2023-02-06T22:38:13.664Z,10.70
2023-02-06T22:40:40.499Z,10.80
2023-02-06T22:43:07.124Z,10.90
2023-02-06T22:45:34.928Z,11.10
2023-02-06T22:48:01.833Z,7.90
2023-02-06T22:50:28.501Z,8.70
2023-02-06T22:53:13.905Z,8.80
2023-02-06T22:55:59.425Z,9.60
2023-02-06T22:58:26.268Z,11.70
2023-02-06T23:00:53.127Z,10.60
2023-02-06T23:03:19.954Z,7.20
2023-02-06T23:05:46.796Z,8.30
2023-02-06T23:08:13.636Z,9.90
2023-02-06T23:10:40.298Z,8.50
2023-02-06T23:13:07.127Z,8.30
2023-02-06T23:15:33.737Z,7.80
2023-02-06T23:18:00.392Z,9.50
2023-02-06T23:20:27.241Z,10.40
2023-02-06T23:22:53.841Z,9.40
2023-02-06T23:25:20.520Z,8.00
2023-02-06T23:27:47.389Z,7.10
2023-02-06T23:30:14.410Z,6.30
2023-02-06T23:32:41.249Z,13.20
2023-02-06T23:35:08.504Z,13.00
2023-02-06T23:37:35.341Z,16.30
2023-02-06T23:40:02.178Z,17.60
2023-02-06T23:42:29.633Z,14.30
2023-02-06T23:44:56.272Z,13.30
2023-02-06T23:47:23.117Z,12.80
2023-02-06T23:49:49.953Z,13.20
2023-02-06T23:52:16.796Z,12.90
2023-02-06T23:54:43.433Z,19.30
2023-02-06T23:57:10.285Z,53.90
2023-02-06T23:59:36.890Z,46.80
